createdAt,value
2022-09-20T00:01:25.608Z,102301.56
2022-09-20T00:03:55.307Z,102298.88
2022-09-20T00:06:27.531Z,102293.69
2022-09-20T00:08:55.251Z,102288.56
2022-09-20T00:11:28.479Z,102291.19
2022-09-20T00:13:57.352Z,102279.09
2022-09-20T00:16:27.719Z,102301.66
2022-09-20T00:18:56.291Z,102287.75
2022-09-20T00:21:25.961Z,102292.13
2022-09-20T00:23:53.338Z,102287.75
2022-09-20T00:26:20.748Z,102294.66
2022-09-20T00:28:47.308Z,102283.31
2022-09-20T00:31:14.929Z,102292.78
2022-09-20T00:34:00.398Z,102285.78
2022-09-20T00:36:30.373Z,102288.31
2022-09-20T00:38:58.099Z,102295.97
2022-09-20T00:41:25.306Z,102293.97
2022-09-20T00:43:52.645Z,102302.50
2022-09-20T00:46:26.364Z,102296.22
2022-09-20T00:48:59.133Z,102294.31
2022-09-20T00:51:31.382Z,102298.59
2022-09-20T00:54:02.346Z,102294.16
2022-09-20T00:56:32.835Z,102287.00
2022-09-20T00:59:22.540Z,102282.44
2022-09-20T01:01:56.814Z,102291.19
2022-09-20T01:04:27.429Z,102294.63
2022-09-20T01:06:56.720Z,102292.97
2022-09-20T01:09:23.251Z,102292.19
2022-09-20T01:11:52.048Z,102300.00
2022-09-20T01:14:19.661Z,102295.84
2022-09-20T01:16:46.361Z,102276.69
2022-09-20T01:19:27.997Z,102295.16
2022-09-20T01:21:55.071Z,102285.56
2022-09-20T01:24:38.985Z,102283.13
2022-09-20T01:27:18.371Z,102288.41
2022-09-20T01:29:51.307Z,102288.56
2022-09-20T01:32:23.650Z,102292.03
2022-09-20T01:34:56.830Z,102278.22
2022-09-20T01:37:47.258Z,102283.50
2022-09-20T01:40:50.891Z,102264.16
2022-09-20T01:43:29.280Z,102284.25
2022-09-20T01:46:02.246Z,102287.63
2022-09-20T01:48:37.628Z,102285.06
2022-09-20T01:51:34.186Z,102291.06
2022-09-20T01:54:30.760Z,102290.94
2022-09-20T01:57:37.765Z,102294.03
2022-09-20T02:00:31.779Z,102286.88
2022-09-20T02:03:25.497Z,102286.69
2022-09-20T02:06:07.276Z,102288.13
2022-09-20T02:08:39.852Z,102285.28
2022-09-20T02:11:23.490Z,102287.78
2022-09-20T02:14:23.519Z,102284.19
2022-09-20T02:16:57.118Z,102287.56
2022-09-20T02:19:24.051Z,102286.84
2022-09-20T02:22:00.945Z,102276.38
2022-09-20T02:24:27.336Z,102290.97
2022-09-20T02:27:38.601Z,102278.81
2022-09-20T02:30:24.369Z,102283.72
2022-09-20T02:33:15.744Z,102280.19
2022-09-20T02:35:50.263Z,102283.41
2022-09-20T02:38:47.436Z,102275.53
2022-09-20T02:41:16.801Z,102285.06
2022-09-20T02:43:56.743Z,102273.69
2022-09-20T02:46:41.354Z,102287.47
2022-09-20T02:49:34.157Z,102283.06
2022-09-20T02:52:31.263Z,102279.53
2022-09-20T02:55:04.485Z,102278.47
2022-09-20T02:58:18.479Z,102287.88
2022-09-20T03:01:14.711Z,102271.94
2022-09-20T03:03:48.836Z,102275.28
2022-09-20T03:06:23.375Z,102283.78
2022-09-20T03:09:17.188Z,102287.03
2022-09-20T03:11:49.136Z,102293.78
2022-09-20T03:14:27.570Z,102282.31
2022-09-20T03:17:09.305Z,102287.31
2022-09-20T03:19:51.426Z,102281.94
2022-09-20T03:22:32.826Z,102291.25
2022-09-20T03:25:08.411Z,102288.63
2022-09-20T03:27:59.268Z,102301.31
2022-09-20T03:31:08.233Z,102274.91
2022-09-20T03:33:45.967Z,102298.34
2022-09-20T03:36:53.519Z,102300.66
2022-09-20T03:39:39.197Z,102302.25
2022-09-20T03:42:29.299Z,102303.13
2022-09-20T03:44:55.780Z,102308.97
2022-09-20T03:47:54.349Z,102309.81
2022-09-20T03:50:33.952Z,102304.38
2022-09-20T03:53:35.528Z,102313.84
2022-09-20T03:56:35.342Z,102313.72
2022-09-20T03:59:29.787Z,102312.75
2022-09-20T04:02:40.142Z,102314.38
2022-09-20T04:05:12.647Z,102305.56
2022-09-20T04:08:00.571Z,102309.13
2022-09-20T04:10:40.966Z,102315.06
2022-09-20T04:13:34.963Z,102310.03
2022-09-20T04:16:22.622Z,102303.31
2022-09-20T04:19:09.450Z,102313.69
2022-09-20T04:21:56.990Z,102313.72
2022-09-20T04:24:41.691Z,102312.81
2022-09-20T04:27:26.258Z,102307.59
2022-09-20T04:30:01.928Z,102306.59
2022-09-20T04:32:55.648Z,102310.94
2022-09-20T04:36:18.510Z,102315.13
2022-09-20T04:38:52.349Z,102310.63
2022-09-20T04:41:34.476Z,102305.47
2022-09-20T04:44:22.528Z,102305.38
2022-09-20T04:47:00.975Z,102311.31
2022-09-20T04:50:15.120Z,102311.09
2022-09-20T04:53:04.622Z,102318.69
2022-09-20T04:55:46.588Z,102316.06
2022-09-20T04:58:37.481Z,102318.47
2022-09-20T05:01:19.651Z,102322.69
2022-09-20T05:03:49.976Z,102322.66
2022-09-20T05:06:41.135Z,102328.53
2022-09-20T05:09:45.035Z,102326.72
2022-09-20T05:12:46.401Z,102322.34
2022-09-20T05:15:38.324Z,102325.78
2022-09-20T05:18:23.560Z,102326.69
2022-09-20T05:21:07.054Z,102333.63
2022-09-20T05:24:02.064Z,102327.63
2022-09-20T05:26:47.083Z,102331.19
2022-09-20T05:29:24.598Z,102334.78
2022-09-20T05:32:10.685Z,102341.88
2022-09-20T05:35:10.105Z,102335.91
2022-09-20T05:38:04.520Z,102351.78
2022-09-20T05:41:31.849Z,102358.16
2022-09-20T05:44:19.957Z,102363.59
2022-09-20T05:47:14.298Z,102357.81
2022-09-20T05:50:08.572Z,102368.28
2022-09-20T05:52:58.521Z,102366.88
2022-09-20T05:55:30.716Z,102365.50
2022-09-20T05:58:02.955Z,102367.47
2022-09-20T06:00:53.992Z,102377.34
2022-09-20T06:03:37.244Z,102375.84
2022-09-20T06:06:06.362Z,102376.31
2022-09-20T06:09:00.578Z,102383.56
2022-09-20T06:11:38.354Z,102376.34
2022-09-20T06:14:32.883Z,102369.22
2022-09-20T06:17:02.300Z,102360.94
2022-09-20T06:20:09.758Z,102348.13
2022-09-20T06:22:47.177Z,102343.13
2022-09-20T06:25:20.700Z,102344.47
2022-09-20T06:27:51.202Z,102351.66
2022-09-20T06:30:33.997Z,102352.66
2022-09-20T06:33:13.654Z,102352.88
2022-09-20T06:35:49.480Z,102350.84
2022-09-20T06:39:01.959Z,102360.94
2022-09-20T06:41:32.891Z,102357.72
2022-09-20T06:44:01.258Z,102359.56
2022-09-20T06:46:33.082Z,102350.03
2022-09-20T06:48:59.799Z,102353.59
2022-09-20T06:51:28.721Z,102369.41
2022-09-20T06:53:57.446Z,102359.81
2022-09-20T06:56:27.025Z,102371.09
2022-09-20T06:58:54.039Z,102367.56
2022-09-20T07:01:29.772Z,102371.22
2022-09-20T07:03:58.253Z,102383.38
2022-09-20T07:06:24.777Z,102386.84
2022-09-20T07:08:51.303Z,102384.13
2022-09-20T07:11:18.183Z,102398.88
2022-09-20T07:13:45.899Z,102398.88
2022-09-20T07:16:14.238Z,102411.78
2022-09-20T07:18:44.211Z,102400.38
2022-09-20T07:21:16.405Z,102409.22
2022-09-20T07:23:45.824Z,102415.66
2022-09-20T07:26:25.825Z,102410.81
2022-09-20T07:28:53.181Z,102415.53
2022-09-20T07:31:21.693Z,102420.88
2022-09-20T07:33:49.206Z,102417.56
2022-09-20T07:36:16.656Z,102424.75
2022-09-20T07:38:48.485Z,102420.50
2022-09-20T07:41:14.934Z,102429.19
2022-09-20T07:43:41.417Z,102425.63
2022-09-20T07:46:07.933Z,102418.84
2022-09-20T07:48:36.819Z,102429.53
2022-09-20T07:51:10.584Z,102420.44
2022-09-20T07:53:38.063Z,102423.34
2022-09-20T07:56:13.592Z,102417.84
2022-09-20T07:58:40.979Z,102423.06
2022-09-20T08:01:10.530Z,102431.00
2022-09-20T08:03:37.992Z,102423.47
2022-09-20T08:06:11.509Z,102439.47
2022-09-20T08:08:40.640Z,102435.50
2022-09-20T08:11:20.471Z,102443.47
2022-09-20T08:14:19.694Z,102443.72
2022-09-20T08:16:41.595Z,102439.59
2022-09-20T08:19:08.729Z,102446.66
2022-09-20T08:21:38.779Z,102441.75
2022-09-20T08:24:05.431Z,102437.44
2022-09-20T08:26:32.234Z,102450.31
2022-09-20T08:29:00.059Z,102448.00
2022-09-20T08:31:31.473Z,102450.56
2022-09-20T08:33:59.109Z,102449.94
2022-09-20T08:36:26.226Z,102459.63
2022-09-20T08:41:58.474Z,102460.34
2022-09-20T08:44:35.209Z,102464.03
2022-09-20T08:47:35.870Z,102474.53
2022-09-20T08:50:10.127Z,102464.91
2022-09-20T08:52:39.830Z,102475.00
2022-09-20T08:55:16.728Z,102481.84
2022-09-20T08:57:44.656Z,102485.94
2022-09-20T09:00:18.124Z,102493.81
2022-09-20T09:02:45.793Z,102478.81
2022-09-20T09:05:28.645Z,102482.41
2022-09-20T09:07:55.150Z,102480.75
2022-09-20T09:10:21.640Z,102474.91
2022-09-20T09:12:49.677Z,102471.59
2022-09-20T09:15:37.225Z,102467.63
2022-09-20T09:18:05.900Z,102475.53
2022-09-20T09:20:42.347Z,102469.81
2022-09-20T09:23:19.584Z,102457.63
2022-09-20T09:25:46.360Z,102464.88
2022-09-20T09:28:14.709Z,102463.97
2022-09-20T09:30:47.557Z,102473.47
2022-09-20T09:33:20.158Z,102475.84
2022-09-20T09:36:17.096Z,102468.22
2022-09-20T09:38:45.852Z,102467.69
2022-09-20T09:41:18.080Z,102467.31
2022-09-20T09:43:59.393Z,102471.34
2022-09-20T09:46:30.479Z,102467.34
2022-09-20T09:49:15.656Z,102456.63
2022-09-20T09:52:13.056Z,102454.44
2022-09-20T09:54:52.959Z,102463.22
2022-09-20T09:57:56.036Z,102467.75
2022-09-20T10:00:27.198Z,102466.19
2022-09-20T10:03:00.463Z,102470.19
2022-09-20T10:06:01.755Z,102468.38
2022-09-20T10:09:00.100Z,102469.94
2022-09-20T10:11:43.099Z,102470.75
2022-09-20T10:14:48.310Z,102465.50
2022-09-20T10:17:27.130Z,102466.28
2022-09-20T10:20:28.276Z,102454.06
2022-09-20T10:23:39.496Z,102461.06
2022-09-20T10:25:59.462Z,102449.25
2022-09-20T10:28:52.145Z,102461.66
2022-09-20T10:31:25.582Z,102459.09
2022-09-20T10:34:18.450Z,102459.25
2022-09-20T10:36:58.337Z,102450.69
2022-09-20T10:39:36.405Z,102449.78
2022-09-20T10:42:45.890Z,102445.38
2022-09-20T10:45:43.906Z,102436.63
2022-09-20T10:48:17.291Z,102463.63
2022-09-20T10:51:11.075Z,102454.84
2022-09-20T10:53:43.301Z,102453.09
2022-09-20T10:56:33.501Z,102451.56
2022-09-20T10:59:30.100Z,102458.53
2022-09-20T11:02:23.911Z,102460.22
2022-09-20T11:05:08.394Z,102463.06
2022-09-20T11:07:43.608Z,102465.59
2022-09-20T11:10:22.719Z,102461.94
2022-09-20T11:13:08.638Z,102461.09
2022-09-20T11:15:44.123Z,102463.63
2022-09-20T11:18:23.738Z,102472.28
2022-09-20T11:21:22.589Z,102476.50
2022-09-20T11:23:57.826Z,102454.66
2022-09-20T11:26:35.840Z,102465.25
2022-09-20T11:29:20.086Z,102472.16
2022-09-20T11:31:50.634Z,102481.03
2022-09-20T11:34:26.482Z,102478.50
2022-09-20T11:36:58.817Z,102468.94
2022-09-20T11:39:30.564Z,102483.72
2022-09-20T11:42:00.346Z,102471.47
2022-09-20T11:44:27.836Z,102474.06
2022-09-20T11:47:52.757Z,102481.72
2022-09-20T11:50:33.060Z,102484.06
2022-09-20T11:53:36.956Z,102484.88
2022-09-20T11:56:11.192Z,102482.47
2022-09-20T11:58:48.867Z,102480.72
2022-09-20T12:01:28.429Z,102484.13
2022-09-20T12:04:31.151Z,102484.28
2022-09-20T12:07:05.895Z,102469.78
2022-09-20T12:09:38.396Z,102474.88
2022-09-20T12:12:45.615Z,102471.53
2022-09-20T12:15:34.674Z,102481.25
2022-09-20T12:18:04.348Z,102479.72
2022-09-20T12:20:34.327Z,102482.34
2022-09-20T12:23:38.343Z,102475.38
2022-09-20T12:26:13.200Z,102470.28
2022-09-20T12:28:56.973Z,102481.56
2022-09-20T12:31:29.194Z,102475.56
2022-09-20T12:34:10.745Z,102481.63
2022-09-20T12:36:39.936Z,102483.34
2022-09-20T12:39:21.662Z,102472.75
2022-09-20T12:42:13.170Z,102477.94
2022-09-20T12:44:42.961Z,102482.34
2022-09-20T12:47:12.117Z,102484.22
2022-09-20T12:50:06.447Z,102478.03
2022-09-20T12:52:51.159Z,102475.38
2022-09-20T12:55:32.273Z,102479.72
2022-09-20T12:58:23.824Z,102468.13
2022-09-20T13:00:57.921Z,102474.03
2022-09-20T13:03:39.783Z,102478.09
2022-09-20T13:06:10.878Z,102476.41
2022-09-20T13:08:48.817Z,102470.25
2022-09-20T13:11:28.036Z,102479.78
2022-09-20T13:14:16.607Z,102473.84
2022-09-20T13:17:01.284Z,102479.88
2022-09-20T13:19:32.278Z,102479.88
2022-09-20T13:22:13.124Z,102475.47
2022-09-20T13:24:43.032Z,102475.44
2022-09-20T13:27:45.158Z,102477.19
2022-09-20T13:30:17.829Z,102485.59
2022-09-20T13:32:44.909Z,102480.44
2022-09-20T13:35:22.220Z,102489.16
2022-09-20T13:38:07.273Z,102471.03
2022-09-20T13:40:39.261Z,102485.09
2022-09-20T13:43:23.579Z,102478.50
2022-09-20T13:45:56.450Z,102479.31
2022-09-20T13:48:30.350Z,102490.53
2022-09-20T13:50:57.570Z,102489.59
2022-09-20T13:53:42.609Z,102472.31
2022-09-20T13:56:21.287Z,102474.03
2022-09-20T13:58:48.851Z,102489.75
2022-09-20T14:01:24.525Z,102479.41
2022-09-20T14:03:51.191Z,102466.44
2022-09-20T14:06:17.724Z,102466.25
2022-09-20T14:08:50.541Z,102476.28
2022-09-20T14:11:24.006Z,102477.72
2022-09-20T14:13:54.216Z,102476.63
2022-09-20T14:16:22.617Z,102487.72
2022-09-20T14:18:49.619Z,102484.03
2022-09-20T14:21:26.175Z,102471.16
2022-09-20T14:24:02.182Z,102477.16
2022-09-20T14:26:39.839Z,102484.19
2022-09-20T14:29:34.053Z,102489.34
2022-09-20T14:32:22.596Z,102478.13
2022-09-20T14:34:55.245Z,102479.94
2022-09-20T14:37:28.704Z,102482.72
2022-09-20T14:39:57.885Z,102469.56
2022-09-20T14:42:42.644Z,102474.75
2022-09-20T14:45:25.273Z,102480.81
2022-09-20T14:48:06.893Z,102481.69
2022-09-20T14:50:45.247Z,102486.06
2022-09-20T14:53:12.263Z,102488.78
2022-09-20T14:55:42.275Z,102482.72
2022-09-20T14:58:14.089Z,102473.31
2022-09-20T15:00:53.889Z,102490.81
2022-09-20T15:03:37.661Z,102483.09
2022-09-20T15:06:04.805Z,102471.81
2022-09-20T15:08:33.772Z,102483.09
2022-09-20T15:11:00.266Z,102483.94
2022-09-20T15:13:26.950Z,102482.16
2022-09-20T15:15:54.190Z,102480.31
2022-09-20T15:18:24.010Z,102482.72
2022-09-20T15:20:51.072Z,102479.97
2022-09-20T15:23:18.139Z,102485.09
2022-09-20T15:25:45.197Z,102483.13
2022-09-20T15:28:19.172Z,102474.50
2022-09-20T15:30:47.332Z,102488.50
2022-09-20T15:33:14.859Z,102478.16
2022-09-20T15:35:42.573Z,102479.00
2022-09-20T15:38:11.712Z,102480.69
2022-09-20T15:40:43.233Z,102475.53
2022-09-20T15:43:14.876Z,102473.56
2022-09-20T15:46:24.821Z,102468.94
2022-09-20T15:48:51.294Z,102479.06
2022-09-20T15:51:17.795Z,102478.88
2022-09-20T15:53:48.575Z,102476.28
2022-09-20T15:56:23.899Z,102480.00
2022-09-20T15:59:01.665Z,102474.88
2022-09-20T16:01:35.522Z,102474.06
2022-09-20T16:04:07.837Z,102480.94
2022-09-20T16:06:34.687Z,102480.00
2022-09-20T16:09:01.151Z,102472.13
2022-09-20T16:11:28.077Z,102471.84
2022-09-20T16:13:56.030Z,102480.31
2022-09-20T16:16:23.519Z,102478.31
2022-09-20T16:19:08.591Z,102478.28
2022-09-20T16:21:36.477Z,102485.22
2022-09-20T16:24:03.318Z,102484.50
2022-09-20T16:26:31.344Z,102490.50
2022-09-20T16:28:58.278Z,102497.25
2022-09-20T16:31:39.858Z,102489.34
2022-09-20T16:34:31.529Z,102497.97
2022-09-20T16:37:01.408Z,102501.16
2022-09-20T16:39:29.814Z,102508.97
2022-09-20T16:42:07.545Z,102512.41
2022-09-20T16:44:38.761Z,102517.59
2022-09-20T16:47:08.842Z,102515.94
2022-09-20T16:49:36.459Z,102514.22
2022-09-20T16:52:08.674Z,102507.13
2022-09-20T16:54:35.544Z,102521.75
2022-09-20T16:57:02.001Z,102512.09
2022-09-20T16:59:28.989Z,102519.84
2022-09-20T17:01:55.681Z,102527.41
2022-09-20T17:04:22.244Z,102528.91
2022-09-20T17:06:50.173Z,102528.81
2022-09-20T17:09:16.929Z,102522.66
2022-09-20T17:11:49.520Z,102519.88
2022-09-20T17:14:18.558Z,102529.19
2022-09-20T17:16:48.410Z,102527.25
2022-09-20T17:19:19.658Z,102530.41
2022-09-20T17:21:51.078Z,102538.94
2022-09-20T17:24:19.770Z,102525.59
2022-09-20T17:26:46.298Z,102534.91
2022-09-20T17:29:16.168Z,102534.63
2022-09-20T17:31:48.794Z,102543.16
2022-09-20T17:34:21.433Z,102542.94
2022-09-20T17:36:48.789Z,102551.34
2022-09-20T17:39:16.307Z,102548.47
2022-09-20T17:41:48.244Z,102555.16
2022-09-20T17:44:16.805Z,102557.72
2022-09-20T17:46:45.591Z,102551.38
2022-09-20T17:49:15.046Z,102554.66
2022-09-20T17:51:49.707Z,102560.56
2022-09-20T17:54:16.635Z,102557.69
2022-09-20T17:56:48.791Z,102570.53
2022-09-20T17:59:16.794Z,102557.28
2022-09-20T18:01:44.984Z,102571.03
2022-09-20T18:04:12.638Z,102556.00
2022-09-20T18:06:42.441Z,102553.94
2022-09-20T18:09:11.947Z,102568.72
2022-09-20T18:11:45.362Z,102577.22
2022-09-20T18:14:13.308Z,102577.00
2022-09-20T18:16:40.416Z,102577.59
2022-09-20T18:19:08.501Z,102573.06
2022-09-20T18:21:36.176Z,102576.31
2022-09-20T18:24:06.047Z,102583.97
2022-09-20T18:26:32.867Z,102581.47
2022-09-20T18:29:00.339Z,102593.44
2022-09-20T18:31:36.143Z,102587.28
2022-09-20T18:34:07.876Z,102590.72
2022-09-20T18:36:38.421Z,102602.00
2022-09-20T18:39:06.198Z,102588.06
2022-09-20T18:41:35.271Z,102588.94
2022-09-20T18:44:04.082Z,102593.97
2022-09-20T18:46:31.447Z,102598.19
2022-09-20T18:49:02.407Z,102607.72
2022-09-20T18:51:29.067Z,102600.59
2022-09-20T18:53:56.598Z,102610.03
2022-09-20T18:56:26.318Z,102608.25
2022-09-20T18:59:07.798Z,102608.16
2022-09-20T19:01:40.127Z,102615.03
2022-09-20T19:04:34.545Z,102623.63
2022-09-20T19:07:10.819Z,102609.66
2022-09-20T19:09:51.152Z,102621.00
2022-09-20T19:12:48.519Z,102615.75
2022-09-20T19:15:46.536Z,102620.03
2022-09-20T19:18:27.972Z,102624.41
2022-09-20T19:20:54.418Z,102626.16
2022-09-20T19:23:36.134Z,102624.41
2022-09-20T19:26:24.237Z,102620.06
2022-09-20T19:28:55.035Z,102628.59
2022-09-20T19:31:30.781Z,102622.56
2022-09-20T19:33:59.780Z,102633.97
2022-09-20T19:36:54.394Z,102629.66
2022-09-20T19:39:42.097Z,102623.44
2022-09-20T19:42:20.011Z,102635.47
2022-09-20T19:45:20.975Z,102645.06
2022-09-20T19:48:28.988Z,102645.09
2022-09-20T19:50:57.381Z,102640.63
2022-09-20T19:53:27.768Z,102647.44
2022-09-20T19:56:21.566Z,102655.28
2022-09-20T19:58:52.889Z,102664.81
2022-09-20T20:01:22.633Z,102667.31
2022-09-20T20:03:50.597Z,102666.50
2022-09-20T20:06:31.201Z,102660.25
2022-09-20T20:09:15.636Z,102672.38
2022-09-20T20:12:00.424Z,102677.56
2022-09-20T20:14:39.123Z,102670.69
2022-09-20T20:17:15.682Z,102660.34
2022-09-20T20:20:07.177Z,102674.25
2022-09-20T20:22:39.810Z,102676.94
2022-09-20T20:25:37.604Z,102679.50
2022-09-20T20:28:04.068Z,102683.13
2022-09-20T20:30:31.629Z,102670.91
2022-09-20T20:32:58.158Z,102680.75
2022-09-20T20:35:25.961Z,102684.16
2022-09-20T20:37:53.488Z,102678.97
2022-09-20T20:40:20.060Z,102677.19
2022-09-20T20:42:47.838Z,102684.28
2022-09-20T20:45:14.522Z,102679.03
2022-09-20T20:47:42.192Z,102684.28
2022-09-20T20:50:11.795Z,102679.97
2022-09-20T20:52:38.827Z,102685.22
2022-09-20T20:55:06.283Z,102688.66
2022-09-20T20:57:34.292Z,102692.16
2022-09-20T21:00:00.834Z,102685.19
2022-09-20T21:02:27.469Z,102699.13
2022-09-20T21:04:53.970Z,102697.41
2022-09-20T21:07:20.477Z,102688.66
2022-09-20T21:09:47.599Z,102698.03
2022-09-20T21:12:14.779Z,102691.84
2022-09-20T21:14:41.305Z,102704.00
2022-09-20T21:17:08.397Z,102705.47
2022-09-20T21:19:34.875Z,102708.84
2022-09-20T21:22:01.437Z,102708.84
2022-09-20T21:24:28.072Z,102714.72
2022-09-20T21:26:54.541Z,102705.00
2022-09-20T21:29:21.107Z,102707.47
2022-09-20T21:31:47.659Z,102707.28
2022-09-20T21:34:15.937Z,102715.75
2022-09-20T21:36:44.563Z,102725.03
2022-09-20T21:39:11.589Z,102715.25
2022-09-20T21:41:39.061Z,102712.41
2022-09-20T21:44:07.291Z,102714.84
2022-09-20T21:46:40.194Z,102704.03
2022-09-20T21:49:09.030Z,102704.78
2022-09-20T21:51:37.157Z,102713.38
2022-09-20T21:54:04.497Z,102712.25
2022-09-20T21:56:33.726Z,102714.53
2022-09-20T21:59:03.579Z,102707.28
2022-09-20T22:01:35.914Z,102713.13
2022-09-20T22:04:11.123Z,102720.81
2022-09-20T22:06:40.414Z,102723.97
2022-09-20T22:09:10.587Z,102721.22
2022-09-20T22:11:40.827Z,102724.22
2022-09-20T22:14:08.543Z,102720.69
2022-09-20T22:16:37.965Z,102722.16
2022-09-20T22:19:05.997Z,102725.47
2022-09-20T22:21:35.462Z,102723.44
2022-09-20T22:24:07.972Z,102716.34
2022-09-20T22:26:43.505Z,102720.41
2022-09-20T22:29:10.590Z,102709.88
2022-09-20T22:31:44.916Z,102712.97
2022-09-20T22:34:15.252Z,102717.16
2022-09-20T22:36:42.608Z,102727.53
2022-09-20T22:39:11.060Z,102727.28
2022-09-20T22:41:39.232Z,102715.00
2022-09-20T22:44:06.449Z,102722.63
2022-09-20T22:46:34.115Z,102719.94
2022-09-20T22:49:00.806Z,102723.19
2022-09-20T22:51:31.492Z,102726.56
2022-09-20T22:53:58.135Z,102729.88
2022-09-20T22:56:29.972Z,102730.84
2022-09-20T22:59:00.241Z,102729.09
2022-09-20T23:01:32.050Z,102728.19
2022-09-20T23:04:07.884Z,102728.19
2022-09-20T23:06:38.727Z,102729.97
2022-09-20T23:09:08.177Z,102722.16
2022-09-20T23:11:36.058Z,102728.19
2022-09-20T23:14:06.909Z,102735.38
2022-09-20T23:16:36.428Z,102728.44
2022-09-20T23:19:04.761Z,102725.94
2022-09-20T23:21:31.752Z,102732.16
2022-09-20T23:24:00.884Z,102722.63
2022-09-20T23:26:30.214Z,102735.00
2022-09-20T23:29:08.821Z,102728.97
2022-09-20T23:31:37.187Z,102725.66
2022-09-20T23:34:06.752Z,102721.19
2022-09-20T23:36:36.404Z,102727.41
2022-09-20T23:39:03.376Z,102731.75
2022-09-20T23:41:30.283Z,102713.28
2022-09-20T23:43:57.021Z,102722.06
2022-09-20T23:46:25.829Z,102734.31
2022-09-20T23:48:53.081Z,102733.38
2022-09-20T23:51:22.738Z,102733.31
2022-09-20T23:53:50.868Z,102730.59
2022-09-20T23:56:18.124Z,102725.31
2022-09-20T23:58:45.243Z,102725.31
